createdAt,value
2019-04-26T00:01:36.458Z,715.57
2019-04-26T00:04:05.845Z,696.57
2019-04-26T00:06:34.990Z,705.93
2019-04-26T00:09:07.185Z,720.97
2019-04-26T00:11:39.682Z,702.33
2019-04-26T00:16:58.809Z,720.80
2019-04-26T00:19:28.140Z,745.60
2019-04-26T00:21:57.485Z,710.70
2019-04-26T00:24:28.497Z,714.13
2019-04-26T00:26:57.546Z,687.73
2019-04-26T00:29:26.650Z,669.57
2019-04-26T00:31:55.821Z,715.83
2019-04-26T00:34:24.941Z,684.70
2019-04-26T00:36:54.095Z,725.50
2019-04-26T00:39:24.911Z,715.00
2019-04-26T00:41:54.180Z,700.17
2019-04-26T00:44:23.288Z,712.07
2019-04-26T00:46:53.951Z,711.90
2019-04-26T00:49:23.271Z,698.13
2019-04-26T00:51:52.752Z,702.03
2019-04-26T00:54:22.284Z,710.07
2019-04-26T00:56:51.665Z,691.30
2019-04-26T00:59:20.937Z,737.60
2019-04-26T01:01:51.682Z,730.50
2019-04-26T01:04:20.972Z,748.43
2019-04-26T01:06:51.541Z,724.63
2019-04-26T01:09:21.542Z,740.10
2019-04-26T01:11:50.620Z,744.93
2019-04-26T01:14:19.983Z,735.13
2019-04-26T01:16:49.022Z,746.30
2019-04-26T01:19:18.587Z,753.07
2019-04-26T01:21:49.142Z,762.13
2019-04-26T01:24:19.383Z,744.70
2019-04-26T01:26:49.237Z,739.70
2019-04-26T01:29:19.655Z,721.67
2019-04-26T01:31:50.240Z,759.93
2019-04-26T01:37:07.448Z,744.40
2019-04-26T01:39:38.189Z,738.03
2019-04-26T01:42:08.866Z,760.17
2019-04-26T01:44:41.130Z,752.40
2019-04-26T01:47:10.113Z,750.77
2019-04-26T01:49:39.207Z,754.50
2019-04-26T01:52:09.764Z,754.37
2019-04-26T01:54:40.621Z,747.60
2019-04-26T01:57:09.703Z,748.43
2019-04-26T01:59:42.045Z,747.50
2019-04-26T02:02:12.670Z,782.93
2019-04-26T02:04:43.626Z,775.17
2019-04-26T02:07:14.590Z,757.60
2019-04-26T02:09:43.759Z,786.47
2019-04-26T02:12:13.022Z,758.33
2019-04-26T02:14:42.220Z,757.03
2019-04-26T02:17:11.531Z,743.03
2019-04-26T02:19:40.590Z,771.57
2019-04-26T02:22:11.274Z,747.10
2019-04-26T02:24:42.101Z,745.17
2019-04-26T02:27:12.864Z,725.27
2019-04-26T02:29:41.985Z,768.80
2019-04-26T02:32:11.089Z,768.83
2019-04-26T02:34:40.229Z,789.20
2019-04-26T02:37:11.011Z,756.83
2019-04-26T02:39:41.083Z,859.10
2019-04-26T02:42:11.728Z,852.07
2019-04-26T02:44:43.967Z,889.80
2019-04-26T02:47:16.250Z,775.50
2019-04-26T02:49:47.372Z,784.20
2019-04-26T02:52:17.919Z,860.33
2019-04-26T02:54:48.521Z,787.23
2019-04-26T02:57:19.163Z,897.90
2019-04-26T02:59:48.589Z,783.07
2019-04-26T03:02:19.183Z,789.03
2019-04-26T03:04:50.020Z,719.70
2019-04-26T03:07:20.606Z,740.17
2019-04-26T03:09:51.133Z,873.77
2019-04-26T03:12:21.713Z,722.27
2019-04-26T03:14:53.949Z,757.20
2019-04-26T03:17:26.168Z,777.17
2019-04-26T03:20:00.026Z,922.33
2019-04-26T03:22:33.179Z,777.27
2019-04-26T03:25:02.823Z,999.90
2019-04-26T03:27:35.096Z,745.27
2019-04-26T03:30:19.302Z,748.47
2019-04-26T03:32:45.742Z,889.53
2019-04-26T03:35:11.796Z,784.77
2019-04-26T03:37:44.528Z,816.17
2019-04-26T03:40:16.900Z,746.20
2019-04-26T03:42:47.462Z,678.07
2019-04-26T03:45:18.157Z,732.43
2019-04-26T03:47:48.709Z,744.23
2019-04-26T03:50:20.366Z,694.20
2019-04-26T03:52:49.230Z,686.30
2019-04-26T03:55:19.798Z,877.53
2019-04-26T03:57:51.922Z,742.37
2019-04-26T04:00:24.132Z,729.23
2019-04-26T04:02:56.334Z,657.97
2019-04-26T04:05:28.567Z,652.47
2019-04-26T04:07:59.099Z,650.87
2019-04-26T04:10:29.833Z,707.83
2019-04-26T04:13:00.412Z,687.80
2019-04-26T04:15:30.985Z,715.07
2019-04-26T04:18:03.208Z,732.67
2019-04-26T04:20:35.426Z,715.53
2019-04-26T04:23:05.990Z,725.47
2019-04-26T04:25:37.975Z,758.50
2019-04-26T04:28:08.720Z,682.23
2019-04-26T04:30:40.666Z,767.27
2019-04-26T04:33:11.444Z,747.87
2019-04-26T04:35:43.465Z,726.40
2019-04-26T04:38:14.181Z,691.10
2019-04-26T04:40:47.216Z,667.37
2019-04-26T04:43:19.621Z,754.23
2019-04-26T04:45:53.150Z,679.93
2019-04-26T04:48:25.322Z,665.87
2019-04-26T04:50:56.094Z,655.33
2019-04-26T04:53:26.654Z,687.60
2019-04-26T04:55:57.234Z,632.77
2019-04-26T04:58:27.773Z,647.27
2019-04-26T05:00:59.995Z,999.90
2019-04-26T05:03:32.221Z,999.90
2019-04-26T05:06:07.773Z,724.93
2019-04-26T05:08:36.642Z,754.27
2019-04-26T05:11:07.525Z,681.93
2019-04-26T05:13:39.903Z,748.97
2019-04-26T05:16:12.117Z,741.87
2019-04-26T05:18:42.834Z,635.17
2019-04-26T05:21:13.426Z,706.13
2019-04-26T05:23:42.369Z,610.13
2019-04-26T05:26:14.615Z,883.63
2019-04-26T05:28:47.557Z,631.37
2019-04-26T05:31:19.833Z,725.97
2019-04-26T05:33:50.449Z,814.20
2019-04-26T05:36:21.100Z,685.43
2019-04-26T05:38:51.661Z,814.33
2019-04-26T05:41:22.279Z,687.40
2019-04-26T05:43:54.474Z,771.37
2019-04-26T05:46:26.712Z,876.30
2019-04-26T05:48:58.925Z,719.87
2019-04-26T05:51:31.136Z,685.73
2019-04-26T05:54:03.337Z,945.00
2019-04-26T05:56:35.549Z,698.33
2019-04-26T05:59:06.103Z,728.90
2019-04-26T06:01:38.422Z,736.87
2019-04-26T06:04:10.618Z,803.40
2019-04-26T06:06:42.883Z,738.93
2019-04-26T06:09:16.141Z,932.03
2019-04-26T06:11:48.449Z,777.50
2019-04-26T06:14:20.655Z,708.33
2019-04-26T06:16:53.161Z,615.50
2019-04-26T06:19:25.350Z,715.70
2019-04-26T06:21:55.925Z,692.07
2019-04-26T06:24:26.470Z,709.30
2019-04-26T06:27:12.087Z,750.37
2019-04-26T06:29:32.760Z,999.90
2019-04-26T06:32:03.182Z,661.43
2019-04-26T06:34:33.725Z,686.47
2019-04-26T06:37:05.949Z,681.90
2019-04-26T06:39:36.735Z,712.90
2019-04-26T06:42:08.629Z,681.23
2019-04-26T06:44:40.830Z,668.20
2019-04-26T06:47:13.040Z,674.23
2019-04-26T06:49:45.298Z,708.20
2019-04-26T06:52:15.909Z,679.80
2019-04-26T06:54:46.458Z,840.97
2019-04-26T06:57:18.818Z,754.83
2019-04-26T06:59:49.372Z,783.67
2019-04-26T07:02:19.969Z,715.07
2019-04-26T07:04:50.526Z,663.10
2019-04-26T07:07:19.647Z,715.93
2019-04-26T07:09:51.173Z,798.97
2019-04-26T07:12:23.406Z,925.93
2019-04-26T07:14:53.962Z,882.40
2019-04-26T07:17:24.633Z,995.13
2019-04-26T07:19:58.539Z,640.20
2019-04-26T07:22:35.578Z,652.73
2019-04-26T07:25:04.507Z,692.63
2019-04-26T07:27:35.465Z,756.00
2019-04-26T07:30:07.140Z,645.27
2019-04-26T07:32:38.871Z,850.37
2019-04-26T07:35:11.149Z,639.50
2019-04-26T07:38:05.442Z,644.07
2019-04-26T07:40:36.111Z,737.47
2019-04-26T07:43:08.491Z,885.73
2019-04-26T07:45:40.724Z,660.33
2019-04-26T07:48:13.026Z,655.27
2019-04-26T07:50:43.649Z,724.30
2019-04-26T07:53:14.310Z,738.33
2019-04-26T07:55:44.953Z,675.87
2019-04-26T07:58:15.732Z,636.73
2019-04-26T08:00:48.043Z,943.40
2019-04-26T08:03:20.346Z,784.43
2019-04-26T08:05:52.329Z,640.63
2019-04-26T08:08:22.977Z,696.90
2019-04-26T08:10:53.518Z,703.80
2019-04-26T08:13:23.906Z,709.50
2019-04-26T08:15:56.102Z,726.53
2019-04-26T08:18:28.343Z,833.33
2019-04-26T08:21:02.487Z,740.10
2019-04-26T08:23:42.143Z,893.83
2019-04-26T08:26:06.559Z,824.83
2019-04-26T08:28:37.817Z,746.80
2019-04-26T08:31:08.974Z,675.00
2019-04-26T08:33:49.855Z,769.90
2019-04-26T08:36:23.292Z,774.43
2019-04-26T08:38:52.474Z,763.53
2019-04-26T08:41:22.881Z,774.90
2019-04-26T08:43:55.824Z,775.10
2019-04-26T08:46:28.393Z,886.70
2019-04-26T08:49:02.154Z,820.27
2019-04-26T08:51:31.209Z,807.20
2019-04-26T08:54:01.498Z,999.90
2019-04-26T08:56:32.129Z,834.50
2019-04-26T08:59:02.721Z,939.70
2019-04-26T09:01:34.629Z,992.03
2019-04-26T09:04:07.167Z,817.33
2019-04-26T09:06:38.568Z,962.53
2019-04-26T09:09:14.396Z,915.33
2019-04-26T09:11:42.774Z,902.00
2019-04-26T09:14:12.012Z,990.87
2019-04-26T09:16:50.132Z,999.90
2019-04-26T09:19:13.313Z,999.90
2019-04-26T09:21:47.408Z,999.90
2019-04-26T09:24:15.267Z,999.90
2019-04-26T09:26:46.710Z,962.30
2019-04-26T09:29:18.272Z,817.97
2019-04-26T09:31:50.522Z,999.90
2019-04-26T09:34:21.447Z,817.13
2019-04-26T09:36:50.466Z,880.10
2019-04-26T09:39:20.915Z,838.80
2019-04-26T09:41:50.016Z,803.10
2019-04-26T09:44:20.773Z,850.77
2019-04-26T09:46:52.823Z,999.90
2019-04-26T09:49:23.809Z,980.20
2019-04-26T09:51:52.916Z,929.33
2019-04-26T09:54:22.913Z,979.67
2019-04-26T09:56:51.973Z,999.90
2019-04-26T09:59:20.993Z,999.90
2019-04-26T10:01:50.911Z,773.87
2019-04-26T10:04:20.008Z,843.30
2019-04-26T10:06:49.045Z,850.07
2019-04-26T10:09:21.343Z,829.80
2019-04-26T10:11:51.918Z,999.90
2019-04-26T10:14:22.582Z,957.47
2019-04-26T10:16:53.275Z,927.03
2019-04-26T10:19:24.010Z,999.90
2019-04-26T10:21:53.105Z,859.00
2019-04-26T10:24:22.141Z,834.30
2019-04-26T10:26:51.265Z,850.17
2019-04-26T10:29:21.632Z,822.87
2019-04-26T10:31:51.744Z,969.83
2019-04-26T10:34:21.752Z,814.47
2019-04-26T10:36:50.772Z,822.73
2019-04-26T10:39:20.153Z,802.60
2019-04-26T10:41:49.284Z,846.63
2019-04-26T10:44:18.423Z,984.03
2019-04-26T10:46:55.392Z,923.67
2019-04-26T10:49:20.406Z,747.67
2019-04-26T10:51:50.365Z,702.73
2019-04-26T10:54:20.466Z,705.37
2019-04-26T10:56:51.135Z,709.57
2019-04-26T10:59:24.642Z,779.03
2019-04-26T11:01:53.702Z,931.17
2019-04-26T11:04:22.705Z,769.17
2019-04-26T11:06:51.725Z,888.27
2019-04-26T11:09:20.718Z,747.70
2019-04-26T11:11:49.776Z,849.83
2019-04-26T11:14:22.661Z,759.27
2019-04-26T11:16:50.654Z,770.27
2019-04-26T11:19:19.653Z,753.53
2019-04-26T11:21:50.982Z,677.83
2019-04-26T11:24:20.793Z,714.60
2019-04-26T11:26:49.817Z,712.53
2019-04-26T11:29:18.923Z,740.43
2019-04-26T11:31:47.873Z,722.30
2019-04-26T11:34:19.282Z,748.20
2019-04-26T11:36:47.645Z,700.30
2019-04-26T11:39:18.100Z,720.90
2019-04-26T11:41:47.262Z,737.63
2019-04-26T11:44:16.281Z,687.43
2019-04-26T11:46:45.616Z,700.73
2019-04-26T11:49:14.846Z,755.50
2019-04-26T11:51:43.855Z,686.90
2019-04-26T11:54:12.997Z,714.83
2019-04-26T11:56:42.088Z,692.97
2019-04-26T11:59:11.166Z,667.63
2019-04-26T12:01:40.610Z,722.00
2019-04-26T12:04:12.591Z,733.93
2019-04-26T12:06:43.244Z,777.37
2019-04-26T12:09:13.992Z,776.30
2019-04-26T12:11:49.458Z,715.93
2019-04-26T12:14:20.219Z,771.00
2019-04-26T12:16:49.279Z,720.13
2019-04-26T12:19:18.193Z,772.47
2019-04-26T12:21:46.106Z,720.73
2019-04-26T12:24:15.221Z,740.53
2019-04-26T12:26:46.333Z,714.27
2019-04-26T12:32:31.728Z,717.10
2019-04-26T12:35:00.790Z,686.70
2019-04-26T12:37:29.873Z,952.07
2019-04-26T12:39:58.945Z,842.83
2019-04-26T12:42:27.947Z,804.27
2019-04-26T12:44:58.657Z,746.37
2019-04-26T12:47:30.608Z,822.83
2019-04-26T12:50:00.469Z,696.20
2019-04-26T12:52:29.944Z,739.20
2019-04-26T12:54:59.386Z,752.33
2019-04-26T12:57:28.706Z,722.70
2019-04-26T13:00:01.778Z,762.53
2019-04-26T13:02:29.126Z,719.53
2019-04-26T13:04:58.711Z,717.90
2019-04-26T13:07:28.320Z,709.57
2019-04-26T13:10:01.069Z,664.33
2019-04-26T13:12:32.345Z,863.30
2019-04-26T13:15:04.771Z,703.83
2019-04-26T13:17:37.375Z,715.80
2019-04-26T13:20:07.408Z,688.47
2019-04-26T13:22:45.876Z,697.30
2019-04-26T13:25:15.259Z,686.47
2019-04-26T13:27:41.564Z,667.17
2019-04-26T13:30:12.031Z,678.57
2019-04-26T13:32:41.891Z,659.33
2019-04-26T13:35:13.094Z,771.43
2019-04-26T13:37:44.722Z,648.13
2019-04-26T13:40:13.911Z,724.00
2019-04-26T13:42:43.454Z,651.10
2019-04-26T13:45:14.610Z,670.33
2019-04-26T13:47:45.704Z,680.60
2019-04-26T13:50:17.093Z,724.00
2019-04-26T13:52:51.811Z,724.23
2019-04-26T13:55:25.426Z,706.50
2019-04-26T13:57:52.595Z,721.93
2019-04-26T14:00:23.699Z,735.90
2019-04-26T14:02:53.116Z,745.37
2019-04-26T14:05:22.535Z,720.63
2019-04-26T14:07:51.972Z,735.67
2019-04-26T14:10:21.519Z,709.67
2019-04-26T14:12:52.033Z,749.63
2019-04-26T14:15:21.526Z,721.87
2019-04-26T14:17:51.057Z,734.77
2019-04-26T14:20:23.432Z,719.00
2019-04-26T14:22:53.889Z,713.93
2019-04-26T14:25:26.951Z,778.33
2019-04-26T14:27:56.529Z,758.87
2019-04-26T14:30:26.090Z,738.67
2019-04-26T14:32:57.249Z,754.83
2019-04-26T14:35:28.386Z,734.27
2019-04-26T14:37:58.107Z,757.00
2019-04-26T14:40:28.657Z,764.03
2019-04-26T14:43:06.547Z,748.10
2019-04-26T14:45:28.979Z,703.40
2019-04-26T14:48:00.213Z,725.33
2019-04-26T14:50:32.021Z,701.47
2019-04-26T14:53:02.316Z,694.43
2019-04-26T14:55:31.415Z,726.50
2019-04-26T14:58:01.976Z,738.80
2019-04-26T15:00:33.940Z,700.87
2019-04-26T15:03:04.657Z,686.43
2019-04-26T15:05:38.154Z,629.03
2019-04-26T15:08:09.704Z,691.27
2019-04-26T15:10:45.796Z,694.73
2019-04-26T15:13:15.334Z,685.27
2019-04-26T15:15:38.832Z,671.60
2019-04-26T15:18:08.013Z,702.30
2019-04-26T15:20:36.993Z,666.20
2019-04-26T15:23:06.018Z,695.47
2019-04-26T15:25:36.798Z,687.90
2019-04-26T15:28:06.899Z,701.37
2019-04-26T15:30:43.365Z,739.00
2019-04-26T15:33:08.996Z,683.10
2019-04-26T15:35:37.838Z,688.67
2019-04-26T15:38:06.886Z,683.67
2019-04-26T15:40:37.568Z,706.43
2019-04-26T15:43:14.360Z,667.60
2019-04-26T15:45:39.841Z,655.77
2019-04-26T15:48:12.096Z,639.67
2019-04-26T15:50:50.241Z,694.20
2019-04-26T15:53:14.752Z,707.33
2019-04-26T15:55:43.941Z,672.87
2019-04-26T15:58:13.121Z,666.50
2019-04-26T16:00:42.862Z,667.03
2019-04-26T16:03:12.835Z,642.20
2019-04-26T16:05:43.345Z,685.33
2019-04-26T16:08:13.062Z,686.80
2019-04-26T16:10:43.075Z,654.40
2019-04-26T16:13:21.452Z,660.07
2019-04-26T16:15:48.337Z,655.77
2019-04-26T16:18:17.100Z,739.73
2019-04-26T16:20:44.535Z,673.80
2019-04-26T16:23:13.613Z,659.60
2019-04-26T16:25:42.883Z,647.10
2019-04-26T16:28:13.733Z,694.43
2019-04-26T16:30:44.554Z,673.90
2019-04-26T16:33:15.273Z,684.60
2019-04-26T16:35:44.291Z,731.67
2019-04-26T16:38:19.757Z,698.03
2019-04-26T16:40:50.646Z,690.10
2019-04-26T16:43:33.871Z,703.37
2019-04-26T16:45:46.880Z,671.07
2019-04-26T16:48:17.435Z,729.67
2019-04-26T16:50:46.812Z,744.43
2019-04-26T16:53:37.920Z,722.23
2019-04-26T16:55:52.308Z,692.60
2019-04-26T16:58:17.336Z,694.50
2019-04-26T17:00:51.567Z,686.37
2019-04-26T17:03:17.065Z,709.27
2019-04-26T17:05:48.511Z,745.87
2019-04-26T17:08:19.311Z,739.80
2019-04-26T17:10:47.726Z,696.87
2019-04-26T17:13:16.737Z,669.60
2019-04-26T17:15:45.789Z,683.67
2019-04-26T17:18:19.378Z,691.63
2019-04-26T17:20:48.159Z,674.33
2019-04-26T17:23:18.916Z,661.47
2019-04-26T17:25:49.591Z,672.27
2019-04-26T17:28:25.172Z,738.93
2019-04-26T17:30:50.318Z,679.47
2019-04-26T17:33:22.732Z,676.27
2019-04-26T17:35:50.073Z,664.73
2019-04-26T17:38:20.722Z,685.47
2019-04-26T17:40:50.481Z,692.87
2019-04-26T17:43:21.107Z,687.80
2019-04-26T17:45:51.653Z,733.53
2019-04-26T17:48:21.264Z,663.43
2019-04-26T17:50:50.703Z,680.13
2019-04-26T17:53:28.544Z,699.70
2019-04-26T17:55:54.748Z,699.80
2019-04-26T17:58:27.749Z,708.57
2019-04-26T18:00:56.562Z,680.33
2019-04-26T18:03:24.860Z,689.50
2019-04-26T18:05:57.276Z,691.73
2019-04-26T18:08:37.108Z,671.27
2019-04-26T18:11:01.080Z,721.63
2019-04-26T18:13:31.909Z,692.77
2019-04-26T18:16:03.614Z,685.20
2019-04-26T18:18:35.026Z,672.20
2019-04-26T18:21:06.043Z,715.40
2019-04-26T18:23:35.397Z,710.43
2019-04-26T18:26:04.884Z,703.17
2019-04-26T18:28:34.257Z,722.87
2019-04-26T18:31:05.570Z,717.13
2019-04-26T18:33:35.244Z,720.00
2019-04-26T18:36:04.892Z,721.57
2019-04-26T18:38:34.637Z,707.37
2019-04-26T18:41:04.260Z,771.33
2019-04-26T18:43:33.861Z,720.27
2019-04-26T18:46:06.583Z,723.83
2019-04-26T18:48:40.647Z,688.70
2019-04-26T18:51:10.743Z,711.87
2019-04-26T18:53:40.224Z,740.40
2019-04-26T18:56:12.648Z,765.93
2019-04-26T18:58:42.290Z,715.97
2019-04-26T19:01:13.630Z,710.37
2019-04-26T19:03:43.728Z,742.53
2019-04-26T19:06:27.048Z,747.70
2019-04-26T19:08:49.809Z,718.17
2019-04-26T19:11:15.749Z,720.70
2019-04-26T19:13:47.109Z,750.30
2019-04-26T19:16:18.435Z,736.03
2019-04-26T19:18:49.538Z,760.07
2019-04-26T19:21:21.914Z,742.33
2019-04-26T19:23:51.970Z,754.70
2019-04-26T19:26:32.438Z,760.80
2019-04-26T19:28:53.884Z,758.23
2019-04-26T19:31:26.922Z,796.47
2019-04-26T19:33:56.076Z,765.57
2019-04-26T19:36:29.105Z,814.03
2019-04-26T19:38:59.877Z,830.73
2019-04-26T19:41:31.417Z,856.03
2019-04-26T19:44:01.771Z,856.47
2019-04-26T19:46:32.855Z,854.87
2019-04-26T19:49:03.797Z,849.87
2019-04-26T19:51:34.916Z,873.03
2019-04-26T19:54:06.355Z,883.83
2019-04-26T19:56:39.911Z,865.00
2019-04-26T19:59:11.135Z,864.03
2019-04-26T20:01:41.962Z,865.33
2019-04-26T20:04:13.550Z,868.37
2019-04-26T20:06:42.881Z,896.77
2019-04-26T20:09:13.797Z,860.90
2019-04-26T20:11:46.906Z,869.03
2019-04-26T20:14:15.144Z,907.57
2019-04-26T20:16:44.831Z,853.90
2019-04-26T20:19:17.707Z,887.80
2019-04-26T20:21:49.592Z,896.37
2019-04-26T20:24:18.327Z,888.73
2019-04-26T20:26:48.746Z,880.00
2019-04-26T20:29:18.663Z,898.57
2019-04-26T20:31:51.942Z,887.70
2019-04-26T20:34:21.851Z,922.23
2019-04-26T20:36:58.333Z,914.77
2019-04-26T20:39:28.340Z,932.13
2019-04-26T20:42:04.066Z,910.53
2019-04-26T20:44:48.113Z,872.27
2019-04-26T20:47:07.657Z,888.07
2019-04-26T20:49:47.440Z,875.30
2019-04-26T20:52:16.560Z,882.97
2019-04-26T20:54:46.533Z,897.40
2019-04-26T20:57:14.819Z,923.67
2019-04-26T20:59:44.451Z,899.27
2019-04-26T21:02:16.359Z,893.17
2019-04-26T21:04:46.230Z,931.17
2019-04-26T21:07:16.184Z,915.20
2019-04-26T21:09:45.693Z,924.67
2019-04-26T21:12:18.411Z,893.67
2019-04-26T21:14:47.329Z,919.80
2019-04-26T21:17:19.507Z,910.80
2019-04-26T21:19:49.982Z,907.53
2019-04-26T21:22:25.459Z,930.43
2019-04-26T21:24:55.377Z,928.83
2019-04-26T21:27:25.870Z,953.07
2019-04-26T21:29:59.045Z,992.27
2019-04-26T21:32:30.774Z,978.10
2019-04-26T21:35:03.578Z,999.90
2019-04-26T21:37:35.977Z,995.40
2019-04-26T21:40:08.476Z,996.03
2019-04-26T21:42:38.138Z,999.40
2019-04-26T21:45:07.815Z,957.30
2019-04-26T21:47:37.295Z,958.53
2019-04-26T21:50:07.126Z,952.97
2019-04-26T21:52:36.638Z,924.80
2019-04-26T21:55:06.748Z,932.47
2019-04-26T21:57:36.382Z,952.43
2019-04-26T22:00:09.267Z,980.50
2019-04-26T22:02:40.362Z,999.90
2019-04-26T22:05:11.697Z,996.77
2019-04-26T22:07:44.666Z,972.53
2019-04-26T22:10:14.304Z,990.17
2019-04-26T22:12:45.100Z,980.23
2019-04-26T22:15:15.224Z,972.50
2019-04-26T22:17:46.349Z,998.33
2019-04-26T22:20:17.678Z,999.90
2019-04-26T22:22:48.631Z,999.90
2019-04-26T22:25:19.630Z,999.90
2019-04-26T22:27:48.982Z,999.90
2019-04-26T22:30:22.740Z,999.90
2019-04-26T22:32:54.603Z,999.90
2019-04-26T22:35:22.030Z,999.90
2019-04-26T22:37:51.546Z,999.90
2019-04-26T22:40:21.154Z,999.90
2019-04-26T22:42:52.159Z,999.90
2019-04-26T22:45:23.562Z,999.90
2019-04-26T22:47:54.647Z,999.90
2019-04-26T22:50:25.076Z,999.90
2019-04-26T22:52:54.934Z,999.90
2019-04-26T22:55:27.421Z,999.90
2019-04-26T22:57:55.358Z,999.90
2019-04-26T23:00:29.473Z,999.90
2019-04-26T23:02:58.234Z,999.90
2019-04-26T23:05:30.701Z,999.90
2019-04-26T23:08:03.226Z,999.90
2019-04-26T23:10:34.424Z,999.90
2019-04-26T23:13:07.952Z,999.90
2019-04-26T23:15:38.034Z,999.90
2019-04-26T23:18:08.126Z,999.90
2019-04-26T23:20:40.315Z,999.90
2019-04-26T23:23:09.808Z,999.90
2019-04-26T23:25:39.566Z,999.90
2019-04-26T23:28:09.106Z,999.90
2019-04-26T23:30:38.601Z,999.90
2019-04-26T23:33:08.052Z,999.90
2019-04-26T23:35:43.766Z,999.90
2019-04-26T23:38:09.641Z,999.40
2019-04-26T23:40:39.086Z,999.90
2019-04-26T23:43:08.852Z,999.90
2019-04-26T23:45:47.110Z,999.90
2019-04-26T23:48:12.150Z,999.90
2019-04-26T23:50:42.849Z,999.90
2019-04-26T23:53:13.778Z,999.90
2019-04-26T23:55:45.217Z,999.90
2019-04-26T23:58:13.953Z,999.90
